sensor_id;sensor_type;location;lat;lon;timestamp;pressure;altitude;pressure_sealevel;temperature;humidity
76448;BME280;65284;51.040;13.722;2024-01-11T00:01:45;101303.81;;;-7.43;93.40
76448;BME280;65284;51.040;13.722;2024-01-11T00:04:11;101314.97;;;-7.41;93.07
76448;BME280;65284;51.040;13.722;2024-01-11T00:06:44;101315.84;;;-7.43;93.51
76448;BME280;65284;51.040;13.722;2024-01-11T00:09:11;101306.38;;;-7.43;93.65
76448;BME280;65284;51.040;13.722;2024-01-11T00:11:38;101312.44;;;-7.42;93.56
76448;BME280;65284;51.040;13.722;2024-01-11T00:14:05;101318.47;;;-7.45;93.38
76448;BME280;65284;51.040;13.722;2024-01-11T00:16:31;101311.56;;;-7.46;93.37
76448;BME280;65284;51.040;13.722;2024-01-11T00:18:58;101312.47;;;-7.48;93.84
76448;BME280;65284;51.040;13.722;2024-01-11T00:21:25;101309.06;;;-7.52;93.76
76448;BME280;65284;51.040;13.722;2024-01-11T00:23:51;101308.25;;;-7.54;93.58
76448;BME280;65284;51.040;13.722;2024-01-11T00:26:18;101311.59;;;-7.49;93.54
76448;BME280;65284;51.040;13.722;2024-01-11T00:28:44;101309.91;;;-7.51;93.51
76448;BME280;65284;51.040;13.722;2024-01-11T00:31:12;101304.78;;;-7.53;93.48
76448;BME280;65284;51.040;13.722;2024-01-11T00:33:39;101304.81;;;-7.56;93.22
76448;BME280;65284;51.040;13.722;2024-01-11T00:36:05;101294.50;;;-7.56;93.36
76448;BME280;65284;51.040;13.722;2024-01-11T00:38:32;101291.91;;;-7.58;93.40
76448;BME280;65284;51.040;13.722;2024-01-11T00:40:58;101292.78;;;-7.57;93.91
76448;BME280;65284;51.040;13.722;2024-01-11T00:43:25;101288.47;;;-7.58;93.53
76448;BME280;65284;51.040;13.722;2024-01-11T00:45:51;101290.22;;;-7.59;93.25
76448;BME280;65284;51.040;13.722;2024-01-11T00:48:17;101293.69;;;-7.63;93.40
76448;BME280;65284;51.040;13.722;2024-01-11T00:50:44;101286.00;;;-7.67;93.73
76448;BME280;65284;51.040;13.722;2024-01-11T00:53:11;101289.44;;;-7.68;93.24
76448;BME280;65284;51.040;13.722;2024-01-11T00:55:40;101286.91;;;-7.71;93.36
76448;BME280;65284;51.040;13.722;2024-01-11T00:58:07;101283.44;;;-7.70;93.95
76448;BME280;65284;51.040;13.722;2024-01-11T01:00:33;101274.88;;;-7.74;93.85
76448;BME280;65284;51.040;13.722;2024-01-11T01:03:00;101279.19;;;-7.74;94.32
76448;BME280;65284;51.040;13.722;2024-01-11T01:05:26;101277.50;;;-7.79;94.04
76448;BME280;65284;51.040;13.722;2024-01-11T01:07:53;101262.91;;;-7.81;93.41
76448;BME280;65284;51.040;13.722;2024-01-11T01:10:19;101268.97;;;-7.84;94.44
76448;BME280;65284;51.040;13.722;2024-01-11T01:12:46;101268.06;;;-7.81;93.57
76448;BME280;65284;51.040;13.722;2024-01-11T01:15:12;101258.63;;;-7.81;94.28
76448;BME280;65284;51.040;13.722;2024-01-11T01:17:40;101250.03;;;-7.83;94.22
76448;BME280;65284;51.040;13.722;2024-01-11T01:20:08;101248.34;;;-7.84;93.88
76448;BME280;65284;51.040;13.722;2024-01-11T01:22:34;101241.41;;;-7.82;94.23
76448;BME280;65284;51.040;13.722;2024-01-11T01:25:01;101250.09;;;-7.89;93.65
76448;BME280;65284;51.040;13.722;2024-01-11T01:27:27;101265.56;;;-7.89;93.61
76448;BME280;65284;51.040;13.722;2024-01-11T01:29:54;101266.44;;;-7.93;94.07
76448;BME280;65284;51.040;13.722;2024-01-11T01:32:20;101264.75;;;-7.94;93.97
76448;BME280;65284;51.040;13.722;2024-01-11T01:34:47;101269.91;;;-7.94;94.34
76448;BME280;65284;51.040;13.722;2024-01-11T01:37:14;101280.22;;;-7.94;94.18
76448;BME280;65284;51.040;13.722;2024-01-11T01:39:41;101276.78;;;-7.96;93.90
76448;BME280;65284;51.040;13.722;2024-01-11T01:42:07;101282.88;;;-8.03;94.32
76448;BME280;65284;51.040;13.722;2024-01-11T01:44:34;101290.59;;;-8.03;94.19
76448;BME280;65284;51.040;13.722;2024-01-11T01:47:02;101280.28;;;-8.03;93.88
76448;BME280;65284;51.040;13.722;2024-01-11T01:49:29;101284.59;;;-8.05;94.32
76448;BME280;65284;51.040;13.722;2024-01-11T01:51:56;101288.03;;;-8.03;94.30
76448;BME280;65284;51.040;13.722;2024-01-11T01:54:23;101284.59;;;-8.05;93.92
76448;BME280;65284;51.040;13.722;2024-01-11T01:56:50;101276.00;;;-8.04;94.09
76448;BME280;65284;51.040;13.722;2024-01-11T01:59:19;101282.88;;;-8.06;94.50
76448;BME280;65284;51.040;13.722;2024-01-11T02:01:46;101269.19;;;-8.10;94.23
76448;BME280;65284;51.040;13.722;2024-01-11T02:04:13;101279.47;;;-8.08;93.42
76448;BME280;65284;51.040;13.722;2024-01-11T02:06:41;101287.25;;;-8.14;93.77
76448;BME280;65284;51.040;13.722;2024-01-11T02:09:10;101303.59;;;-8.18;94.67
76448;BME280;65284;51.040;13.722;2024-01-11T02:11:38;101297.56;;;-8.16;94.37
76448;BME280;65284;51.040;13.722;2024-01-11T02:14:05;101296.69;;;-8.16;94.46
76448;BME280;65284;51.040;13.722;2024-01-11T02:16:32;101288.19;;;-8.26;95.16
76448;BME280;65284;51.040;13.722;2024-01-11T02:18:58;101296.75;;;-8.26;95.70
76448;BME280;65284;51.040;13.722;2024-01-11T02:21:27;101288.22;;;-8.28;96.14
76448;BME280;65284;51.040;13.722;2024-01-11T02:24:04;101289.06;;;-8.29;96.67
76448;BME280;65284;51.040;13.722;2024-01-11T02:26:32;101274.47;;;-8.30;97.82
76448;BME280;65284;51.040;13.722;2024-01-11T02:28:59;101278.72;;;-8.26;97.45
76448;BME280;65284;51.040;13.722;2024-01-11T02:31:25;101286.47;;;-8.24;96.98
76448;BME280;65284;51.040;13.722;2024-01-11T02:33:52;101283.91;;;-8.27;98.35
76448;BME280;65284;51.040;13.722;2024-01-11T02:36:21;101293.34;;;-8.28;98.50
76448;BME280;65284;51.040;13.722;2024-01-11T02:38:48;101305.44;;;-8.36;100.00
76448;BME280;65284;51.040;13.722;2024-01-11T02:41:18;101302.81;;;-8.30;100.00
76448;BME280;65284;51.040;13.722;2024-01-11T02:43:48;101310.56;;;-8.33;100.00
76448;BME280;65284;51.040;13.722;2024-01-11T02:46:15;101303.69;;;-8.31;100.00
76448;BME280;65284;51.040;13.722;2024-01-11T02:48:43;101308.84;;;-8.31;100.00
76448;BME280;65284;51.040;13.722;2024-01-11T02:51:09;101314.81;;;-8.29;100.00
76448;BME280;65284;51.040;13.722;2024-01-11T02:53:36;101322.53;;;-8.29;100.00
76448;BME280;65284;51.040;13.722;2024-01-11T02:56:03;101314.00;;;-8.31;100.00
76448;BME280;65284;51.040;13.722;2024-01-11T02:58:29;101318.25;;;-8.28;100.00
76448;BME280;65284;51.040;13.722;2024-01-11T03:00:56;101304.53;;;-8.32;100.00
76448;BME280;65284;51.040;13.722;2024-01-11T03:03:22;101307.94;;;-8.28;100.00
76448;BME280;65284;51.040;13.722;2024-01-11T03:05:49;101305.44;;;-8.36;100.00
76448;BME280;65284;51.040;13.722;2024-01-11T03:08:15;101299.47;;;-8.39;100.00
76448;BME280;65284;51.040;13.722;2024-01-11T03:10:42;101304.63;;;-8.39;100.00
76448;BME280;65284;51.040;13.722;2024-01-11T03:13:08;101308.94;;;-8.40;100.00
76448;BME280;65284;51.040;13.722;2024-01-11T03:15:35;101324.38;;;-8.43;100.00
76448;BME280;65284;51.040;13.722;2024-01-11T03:18:01;101326.09;;;-8.42;100.00
76448;BME280;65284;51.040;13.722;2024-01-11T03:20:28;101329.53;;;-8.40;100.00
76448;BME280;65284;51.040;13.722;2024-01-11T03:22:55;101309.78;;;-8.44;100.00
76448;BME280;65284;51.040;13.722;2024-01-11T03:25:22;101299.47;;;-8.41;100.00
76448;BME280;65284;51.040;13.722;2024-01-11T03:27:48;101294.34;;;-8.42;100.00
76448;BME280;65284;51.040;13.722;2024-01-11T03:30:15;101285.75;;;-8.43;100.00
76448;BME280;65284;51.040;13.722;2024-01-11T03:32:43;101284.91;;;-8.45;100.00
76448;BME280;65284;51.040;13.722;2024-01-11T03:35:09;101278.06;;;-8.48;100.00
76448;BME280;65284;51.040;13.722;2024-01-11T03:37:36;101284.06;;;-8.47;99.71
76448;BME280;65284;51.040;13.722;2024-01-11T03:40:03;101280.63;;;-8.48;99.94
76448;BME280;65284;51.040;13.722;2024-01-11T03:42:30;101260.88;;;-8.47;99.89
76448;BME280;65284;51.040;13.722;2024-01-11T03:44:56;101243.72;;;-8.48;99.16
76448;BME280;65284;51.040;13.722;2024-01-11T03:47:23;101246.19;;;-8.36;98.05
76448;BME280;65284;51.040;13.722;2024-01-11T03:49:49;101242.84;;;-8.42;97.97
76448;BME280;65284;51.040;13.722;2024-01-11T03:52:16;101231.66;;;-8.43;97.34
76448;BME280;65284;51.040;13.722;2024-01-11T03:54:42;101228.25;;;-8.45;97.28
76448;BME280;65284;51.040;13.722;2024-01-11T03:57:09;101223.13;;;-8.48;97.21
76448;BME280;65284;51.040;13.722;2024-01-11T03:59:35;101231.72;;;-8.52;97.73
76448;BME280;65284;51.040;13.722;2024-01-11T04:02:02;101244.59;;;-8.52;97.50
76448;BME280;65284;51.040;13.722;2024-01-11T04:04:28;101241.16;;;-8.51;96.79
76448;BME280;65284;51.040;13.722;2024-01-11T04:06:55;101237.75;;;-8.52;97.34
76448;BME280;65284;51.040;13.722;2024-01-11T04:09:21;101236.00;;;-8.53;96.42
76448;BME280;65284;51.040;13.722;2024-01-11T04:11:47;101235.16;;;-8.50;97.10
76448;BME280;65284;51.040;13.722;2024-01-11T04:14:14;101253.19;;;-8.49;96.79
76448;BME280;65284;51.040;13.722;2024-01-11T04:16:41;101245.41;;;-8.44;96.72
76448;BME280;65284;51.040;13.722;2024-01-11T04:19:08;101248.84;;;-8.45;97.41
76448;BME280;65284;51.040;13.722;2024-01-11T04:21:34;101250.56;;;-8.47;97.33
76448;BME280;65284;51.040;13.722;2024-01-11T04:24:01;101257.47;;;-8.52;96.72
76448;BME280;65284;51.040;13.722;2024-01-11T04:26:27;101263.47;;;-8.49;97.17
76448;BME280;65284;51.040;13.722;2024-01-11T04:28:54;101275.47;;;-8.49;97.23
76448;BME280;65284;51.040;13.722;2024-01-11T04:31:26;101278.06;;;-8.49;97.57
76448;BME280;65284;51.040;13.722;2024-01-11T04:33:52;101290.09;;;-8.51;97.79
76448;BME280;65284;51.040;13.722;2024-01-11T04:36:19;101285.81;;;-8.54;97.66
76448;BME280;65284;51.040;13.722;2024-01-11T04:38:45;101296.97;;;-8.55;98.18
76448;BME280;65284;51.040;13.722;2024-01-11T04:41:13;101303.84;;;-8.55;97.91
76448;BME280;65284;51.040;13.722;2024-01-11T04:43:40;101318.31;;;-8.36;98.03
76448;BME280;65284;51.040;13.722;2024-01-11T04:46:17;101319.25;;;-8.46;96.53
76448;BME280;65284;51.040;13.722;2024-01-11T04:48:44;101303.81;;;-8.52;96.46
76448;BME280;65284;51.040;13.722;2024-01-11T04:51:12;101301.28;;;-8.54;95.95
76448;BME280;65284;51.040;13.722;2024-01-11T04:53:40;101303.81;;;-8.52;96.66
76448;BME280;65284;51.040;13.722;2024-01-11T04:56:07;101322.69;;;-8.44;96.40
76448;BME280;65284;51.040;13.722;2024-01-11T04:58:39;101316.69;;;-8.49;96.36
76448;BME280;65284;51.040;13.722;2024-01-11T05:01:06;101319.28;;;-8.52;97.06
76448;BME280;65284;51.040;13.722;2024-01-11T05:03:33;101315.91;;;-8.65;97.99
76448;BME280;65284;51.040;13.722;2024-01-11T05:06:00;101326.16;;;-8.51;98.64
76448;BME280;65284;51.040;13.722;2024-01-11T05:08:26;101315.03;;;-8.64;99.23
76448;BME280;65284;51.040;13.722;2024-01-11T05:10:54;101300.47;;;-8.63;99.79
76448;BME280;65284;51.040;13.722;2024-01-11T05:13:22;101296.19;;;-8.67;99.77
76448;BME280;65284;51.040;13.722;2024-01-11T05:15:48;101287.59;;;-8.70;100.00
76448;BME280;65284;51.040;13.722;2024-01-11T05:18:15;101280.75;;;-8.71;100.00
76448;BME280;65284;51.040;13.722;2024-01-11T05:20:41;101274.75;;;-8.73;100.00
76448;BME280;65284;51.040;13.722;2024-01-11T05:23:08;101273.03;;;-8.71;100.00
76448;BME280;65284;51.040;13.722;2024-01-11T05:25:35;101270.41;;;-8.60;100.00
76448;BME280;65284;51.040;13.722;2024-01-11T05:28:02;101282.47;;;-8.71;100.00
76448;BME280;65284;51.040;13.722;2024-01-11T05:30:33;101277.38;;;-8.77;100.00
76448;BME280;65284;51.040;13.722;2024-01-11T05:32:59;101297.09;;;-8.75;100.00
76448;BME280;65284;51.040;13.722;2024-01-11T05:35:26;101307.38;;;-8.72;100.00
76448;BME280;65284;51.040;13.722;2024-01-11T05:37:54;101303.06;;;-8.71;100.00
76448;BME280;65284;51.040;13.722;2024-01-11T05:40:23;101282.47;;;-8.71;100.00
76448;BME280;65284;51.040;13.722;2024-01-11T05:42:50;101290.19;;;-8.66;100.00
76448;BME280;65284;51.040;13.722;2024-01-11T05:45:16;101280.75;;;-8.67;100.00
76448;BME280;65284;51.040;13.722;2024-01-11T05:47:47;101288.47;;;-8.67;100.00
76448;BME280;65284;51.040;13.722;2024-01-11T05:50:14;101303.06;;;-8.63;100.00
76448;BME280;65284;51.040;13.722;2024-01-11T05:52:41;101304.69;;;-8.53;100.00
76448;BME280;65284;51.040;13.722;2024-01-11T05:55:07;101300.47;;;-8.60;100.00
76448;BME280;65284;51.040;13.722;2024-01-11T05:57:34;101303.06;;;-8.63;100.00
76448;BME280;65284;51.040;13.722;2024-01-11T06:00:00;101308.22;;;-8.66;100.00
76448;BME280;65284;51.040;13.722;2024-01-11T06:02:27;101312.50;;;-8.68;100.00
76448;BME280;65284;51.040;13.722;2024-01-11T06:04:53;101322.81;;;-8.68;100.00
76448;BME280;65284;51.040;13.722;2024-01-11T06:07:20;101314.22;;;-8.67;100.00
76448;BME280;65284;51.040;13.722;2024-01-11T06:09:46;101309.94;;;-8.70;100.00
76448;BME280;65284;51.040;13.722;2024-01-11T06:12:13;101303.94;;;-8.69;100.00
76448;BME280;65284;51.040;13.722;2024-01-11T06:14:40;101302.22;;;-8.68;100.00
76448;BME280;65284;51.040;13.722;2024-01-11T06:17:06;101308.19;;;-8.70;100.00
76448;BME280;65284;51.040;13.722;2024-01-11T06:19:33;101325.38;;;-8.68;100.00
76448;BME280;65284;51.040;13.722;2024-01-11T06:22:00;101326.22;;;-8.70;100.00
76448;BME280;65284;51.040;13.722;2024-01-11T06:24:26;101319.38;;;-8.67;100.00
76448;BME280;65284;51.040;13.722;2024-01-11T06:26:52;101326.22;;;-8.70;100.00
76448;BME280;65284;51.040;13.722;2024-01-11T06:29:19;101329.69;;;-8.71;100.00
76448;BME280;65284;51.040;13.722;2024-01-11T06:31:45;101336.53;;;-8.70;99.37
76448;BME280;65284;51.040;13.722;2024-01-11T06:34:12;101333.94;;;-8.70;100.00
76448;BME280;65284;51.040;13.722;2024-01-11T06:36:39;101317.66;;;-8.68;99.41
76448;BME280;65284;51.040;13.722;2024-01-11T06:39:05;101314.19;;;-8.63;98.95
76448;BME280;65284;51.040;13.722;2024-01-11T06:41:32;101324.47;;;-8.61;99.01
76448;BME280;65284;51.040;13.722;2024-01-11T06:43:58;101316.78;;;-8.67;99.12
76448;BME280;65284;51.040;13.722;2024-01-11T06:46:27;101302.19;;;-8.65;98.96
76448;BME280;65284;51.040;13.722;2024-01-11T06:48:53;101283.16;;;-8.43;99.82
76448;BME280;65284;51.040;13.722;2024-01-11T06:51:23;101283.19;;;-8.40;99.10
76448;BME280;65284;51.040;13.722;2024-01-11T06:53:49;101277.19;;;-8.47;98.56
76448;BME280;65284;51.040;13.722;2024-01-11T06:56:17;101271.22;;;-8.49;98.59
76448;BME280;65284;51.040;13.722;2024-01-11T06:58:44;101257.44;;;-8.49;98.51
76448;BME280;65284;51.040;13.722;2024-01-11T07:01:11;101259.19;;;-8.48;98.66
76448;BME280;65284;51.040;13.722;2024-01-11T07:03:39;101251.44;;;-8.48;98.73
76448;BME280;65284;51.040;13.722;2024-01-11T07:06:05;101240.25;;;-8.44;98.45
76448;BME280;65284;51.040;13.722;2024-01-11T07:08:32;101241.94;;;-8.43;97.99
76448;BME280;65284;51.040;13.722;2024-01-11T07:11:00;101240.22;;;-8.41;97.99
76448;BME280;65284;51.040;13.722;2024-01-11T07:13:29;101243.56;;;-8.31;97.28
76448;BME280;65284;51.040;13.722;2024-01-11T07:15:55;101250.44;;;-8.35;97.73
76448;BME280;65284;51.040;13.722;2024-01-11T07:18:24;101246.16;;;-8.37;98.28
76448;BME280;65284;51.040;13.722;2024-01-11T07:20:52;101243.59;;;-8.36;98.41
76448;BME280;65284;51.040;13.722;2024-01-11T07:23:19;101250.38;;;-8.26;98.83
76448;BME280;65284;51.040;13.722;2024-01-11T07:25:45;101230.38;;;-7.96;98.17
76448;BME280;65284;51.040;13.722;2024-01-11T07:28:12;101244.56;;;-7.52;99.17
76448;BME280;65284;51.040;13.722;2024-01-11T07:30:38;101251.41;;;-7.48;98.14
76448;BME280;65284;51.040;13.722;2024-01-11T07:33:06;101222.34;;;-7.62;97.33
76448;BME280;65284;51.040;13.722;2024-01-11T07:35:34;101232.59;;;-7.56;97.14
76448;BME280;65284;51.040;13.722;2024-01-11T07:38:01;101232.38;;;-7.38;97.96
76448;BME280;65284;51.040;13.722;2024-01-11T07:40:27;101251.22;;;-7.29;98.16
76448;BME280;65284;51.040;13.722;2024-01-11T07:42:56;101246.00;;;-7.28;97.48
76448;BME280;65284;51.040;13.722;2024-01-11T07:45:23;101245.28;;;-7.38;97.17
76448;BME280;65284;51.040;13.722;2024-01-11T07:47:50;101258.22;;;-7.41;96.33
76448;BME280;65284;51.040;13.722;2024-01-11T07:50:16;101254.88;;;-7.52;96.24
76448;BME280;65284;51.040;13.722;2024-01-11T07:52:43;101239.47;;;-7.58;96.45
76448;BME280;65284;51.040;13.722;2024-01-11T07:55:09;101239.47;;;-7.58;96.28
76448;BME280;65284;51.040;13.722;2024-01-11T07:57:38;101233.56;;;-7.69;96.45
76448;BME280;65284;51.040;13.722;2024-01-11T08:00:06;101241.31;;;-7.69;95.96
76448;BME280;65284;51.040;13.722;2024-01-11T08:02:35;101243.13;;;-7.78;96.42
76448;BME280;65284;51.040;13.722;2024-01-11T08:05:02;101255.16;;;-7.80;96.89
76448;BME280;65284;51.040;13.722;2024-01-11T08:07:29;101266.38;;;-7.84;96.26
76448;BME280;65284;51.040;13.722;2024-01-11T08:09:56;101280.97;;;-7.83;97.11
76448;BME280;65284;51.040;13.722;2024-01-11T08:12:22;101281.81;;;-7.82;97.12
76448;BME280;65284;51.040;13.722;2024-01-11T08:14:49;101278.41;;;-7.84;96.31
76448;BME280;65284;51.040;13.722;2024-01-11T08:17:16;101283.50;;;-7.76;96.76
76448;BME280;65284;51.040;13.722;2024-01-11T08:19:42;101262.81;;;-7.72;96.62
76448;BME280;65284;51.040;13.722;2024-01-11T08:22:10;101245.59;;;-7.68;96.60
76448;BME280;65284;51.040;13.722;2024-01-11T08:24:37;101250.72;;;-7.65;96.71
76448;BME280;65284;51.040;13.722;2024-01-11T08:27:04;101266.19;;;-7.62;96.54
76448;BME280;65284;51.040;13.722;2024-01-11T08:29:30;101275.56;;;-7.55;96.28
76448;BME280;65284;51.040;13.722;2024-01-11T08:31:57;101275.50;;;-7.49;96.17
76448;BME280;65284;51.040;13.722;2024-01-11T08:34:24;101275.41;;;-7.43;96.32
76448;BME280;65284;51.040;13.722;2024-01-11T08:36:53;101275.34;;;-7.37;96.28
76448;BME280;65284;51.040;13.722;2024-01-11T08:39:19;101273.66;;;-7.38;96.21
76448;BME280;65284;51.040;13.722;2024-01-11T08:41:47;101265.00;;;-7.32;96.31
76448;BME280;65284;51.040;13.722;2024-01-11T08:44:14;101257.72;;;-6.98;96.14
76448;BME280;65284;51.040;13.722;2024-01-11T08:46:40;101252.59;;;-7.01;94.46
76448;BME280;65284;51.040;13.722;2024-01-11T08:49:07;101262.91;;;-6.98;94.15
76448;BME280;65284;51.040;13.722;2024-01-11T08:51:34;101249.09;;;-6.97;94.65
76448;BME280;65284;51.040;13.722;2024-01-11T08:54:01;101256.81;;;-6.95;93.60
76448;BME280;65284;51.040;13.722;2024-01-11T08:56:28;101257.56;;;-6.85;93.36
76448;BME280;65284;51.040;13.722;2024-01-11T08:58:54;101245.44;;;-6.80;93.07
76448;BME280;65284;51.040;13.722;2024-01-11T09:01:21;101243.81;;;-6.88;93.68
76448;BME280;65284;51.040;13.722;2024-01-11T09:03:48;101241.22;;;-6.89;94.08
76448;BME280;65284;51.040;13.722;2024-01-11T09:06:15;101244.75;;;-6.93;93.99
76448;BME280;65284;51.040;13.722;2024-01-11T09:08:42;101243.84;;;-6.91;94.02
76448;BME280;65284;51.040;13.722;2024-01-11T09:11:08;101263.69;;;-6.96;95.03
76448;BME280;65284;51.040;13.722;2024-01-11T09:13:36;101268.75;;;-6.87;94.76
76448;BME280;65284;51.040;13.722;2024-01-11T09:16:03;101262.59;;;-6.76;94.01
76448;BME280;65284;51.040;13.722;2024-01-11T09:18:30;101254.78;;;-6.70;94.09
76448;BME280;65284;51.040;13.722;2024-01-11T09:20:57;101253.00;;;-6.65;94.14
76448;BME280;65284;51.040;13.722;2024-01-11T09:23:23;101250.47;;;-6.70;94.58
76448;BME280;65284;51.040;13.722;2024-01-11T09:25:50;101260.81;;;-6.71;94.91
76448;BME280;65284;51.040;13.722;2024-01-11T09:28:16;101270.19;;;-6.64;94.86
76448;BME280;65284;51.040;13.722;2024-01-11T09:30:43;101271.88;;;-6.63;94.93
76448;BME280;65284;51.040;13.722;2024-01-11T09:33:09;101269.31;;;-6.63;94.96
76448;BME280;65284;51.040;13.722;2024-01-11T09:35:36;101260.66;;;-6.59;95.95
76448;BME280;65284;51.040;13.722;2024-01-11T09:38:03;101256.28;;;-6.57;95.92
76448;BME280;65284;51.040;13.722;2024-01-11T09:40:30;101255.31;;;-6.47;95.78
76448;BME280;65284;51.040;13.722;2024-01-11T09:42:57;101254.31;;;-6.38;95.82
76448;BME280;65284;51.040;13.722;2024-01-11T09:45:24;101266.91;;;-6.16;95.04
76448;BME280;65284;51.040;13.722;2024-01-11T09:47:51;101270.19;;;-6.07;94.79
76448;BME280;65284;51.040;13.722;2024-01-11T09:50:19;101280.28;;;-5.91;94.70
76448;BME280;65284;51.040;13.722;2024-01-11T09:52:49;101273.84;;;-5.69;93.79
76448;BME280;65284;51.040;13.722;2024-01-11T09:55:17;101272.22;;;-5.75;93.78
76448;BME280;65284;51.040;13.722;2024-01-11T09:57:46;101258.38;;;-5.72;93.63
76448;BME280;65284;51.040;13.722;2024-01-11T10:00:16;101257.59;;;-5.77;94.37
76448;BME280;65284;51.040;13.722;2024-01-11T10:02:45;101248.91;;;-5.73;94.15
76448;BME280;65284;51.040;13.722;2024-01-11T10:05:13;101246.34;;;-5.75;94.52
76448;BME280;65284;51.040;13.722;2024-01-11T10:07:42;101241.97;;;-5.71;94.72
76448;BME280;65284;51.040;13.722;2024-01-11T10:10:09;101238.50;;;-5.70;95.07
76448;BME280;65284;51.040;13.722;2024-01-11T10:12:36;101234.09;;;-5.65;94.71
76448;BME280;65284;51.040;13.722;2024-01-11T10:15:07;101222.03;;;-5.64;94.77
76448;BME280;65284;51.040;13.722;2024-01-11T10:17:44;101228.97;;;-5.66;95.05
76448;BME280;65284;51.040;13.722;2024-01-11T10:20:12;101227.22;;;-5.66;95.57
76448;BME280;65284;51.040;13.722;2024-01-11T10:22:44;101220.88;;;-5.50;95.72
76448;BME280;65284;51.040;13.722;2024-01-11T10:25:14;101210.59;;;-5.53;95.43
76448;BME280;65284;51.040;13.722;2024-01-11T10:27:42;101224.28;;;-5.47;95.76
76448;BME280;65284;51.040;13.722;2024-01-11T10:30:13;101208.81;;;-5.51;95.66
76448;BME280;65284;51.040;13.722;2024-01-11T10:32:43;101207.84;;;-5.45;95.74
76448;BME280;65284;51.040;13.722;2024-01-11T10:35:10;101207.59;;;-5.33;95.17
76448;BME280;65284;51.040;13.722;2024-01-11T10:37:37;101201.63;;;-5.36;95.43
76448;BME280;65284;51.040;13.722;2024-01-11T10:40:07;101198.50;;;-5.09;95.38
76448;BME280;65284;51.040;13.722;2024-01-11T10:42:45;101200.47;;;-5.21;94.71
76448;BME280;65284;51.040;13.722;2024-01-11T10:45:17;101199.69;;;-5.27;95.39
76448;BME280;65284;51.040;13.722;2024-01-11T10:48:12;101199.69;;;-5.25;96.35
76448;BME280;65284;51.040;13.722;2024-01-11T10:50:42;101187.63;;;-5.26;96.00
76448;BME280;65284;51.040;13.722;2024-01-11T10:55:42;101186.59;;;-5.19;95.94
76448;BME280;65284;51.040;13.722;2024-01-11T10:58:09;101183.94;;;-5.16;96.06
76448;BME280;65284;51.040;13.722;2024-01-11T11:00:36;101181.28;;;-5.11;96.11
76448;BME280;65284;51.040;13.722;2024-01-11T11:03:05;101181.94;;;-5.01;96.31
76448;BME280;65284;51.040;13.722;2024-01-11T11:05:35;101171.16;;;-4.83;95.15
76448;BME280;65284;51.040;13.722;2024-01-11T11:08:02;101164.22;;;-4.81;95.30
76448;BME280;65284;51.040;13.722;2024-01-11T11:10:34;101168.50;;;-4.44;94.12
76448;BME280;65284;51.040;13.722;2024-01-11T11:13:00;101154.31;;;-4.64;93.92
76448;BME280;65284;51.040;13.722;2024-01-11T11:15:27;101156.16;;;-4.69;94.39
76448;BME280;65284;51.040;13.722;2024-01-11T11:17:55;101146.47;;;-4.62;93.61
76448;BME280;65284;51.040;13.722;2024-01-11T11:20:22;101152.97;;;-4.44;93.97
76448;BME280;65284;51.040;13.722;2024-01-11T11:23:06;101137.31;;;-4.41;93.62
76448;BME280;65284;51.040;13.722;2024-01-11T11:25:34;101133.13;;;-4.45;93.78
76448;BME280;65284;51.040;13.722;2024-01-11T11:28:00;101133.88;;;-4.40;93.54
76448;BME280;65284;51.040;13.722;2024-01-11T11:30:32;101138.66;;;-4.25;92.79
76448;BME280;65284;51.040;13.722;2024-01-11T11:33:08;101122.34;;;-4.28;92.81
76448;BME280;65284;51.040;13.722;2024-01-11T11:35:37;101117.66;;;-4.16;92.06
76448;BME280;65284;51.040;13.722;2024-01-11T11:38:05;101117.50;;;-4.09;91.74
76448;BME280;65284;51.040;13.722;2024-01-11T11:40:38;101110.22;;;-3.97;91.73
76448;BME280;65284;51.040;13.722;2024-01-11T11:43:11;101101.31;;;-3.86;90.36
76448;BME280;65284;51.040;13.722;2024-01-11T11:45:37;101106.91;;;-3.69;89.45
76448;BME280;65284;51.040;13.722;2024-01-11T11:51:06;101087.31;;;-3.22;86.34
76448;BME280;65284;51.040;13.722;2024-01-11T11:53:33;101101.84;;;-2.88;81.17
76448;BME280;65284;51.040;13.722;2024-01-11T11:56:01;101102.47;;;-2.80;82.38
76448;BME280;65284;51.040;13.722;2024-01-11T11:58:29;101102.06;;;-2.67;82.33
76448;BME280;65284;51.040;13.722;2024-01-11T12:00:57;101109.47;;;-2.55;79.45
76448;BME280;65284;51.040;13.722;2024-01-11T12:03:35;101109.56;;;-2.32;78.86
76448;BME280;65284;51.040;13.722;2024-01-11T12:06:06;101107.63;;;-2.52;79.67
76448;BME280;65284;51.040;13.722;2024-01-11T12:08:34;101097.59;;;-2.62;79.16
76448;BME280;65284;51.040;13.722;2024-01-11T12:11:02;101103.94;;;-2.71;80.26
76448;BME280;65284;51.040;13.722;2024-01-11T12:13:29;101106.19;;;-2.60;78.77
76448;BME280;65284;51.040;13.722;2024-01-11T12:15:57;101096.84;;;-2.66;78.30
76448;BME280;65284;51.040;13.722;2024-01-11T12:18:23;101092.59;;;-2.68;78.69
76448;BME280;65284;51.040;13.722;2024-01-11T12:20:50;101108.81;;;-2.62;78.19
76448;BME280;65284;51.040;13.722;2024-01-11T12:23:19;101103.97;;;-2.46;75.67
76448;BME280;65284;51.040;13.722;2024-01-11T12:25:46;101091.88;;;-2.47;75.00
76448;BME280;65284;51.040;13.722;2024-01-11T12:28:13;101099.72;;;-2.48;73.57
76448;BME280;65284;51.040;13.722;2024-01-11T12:30:40;101091.66;;;-2.41;70.54
76448;BME280;65284;51.040;13.722;2024-01-11T12:33:07;101077.88;;;-2.18;65.26
76448;BME280;65284;51.040;13.722;2024-01-11T12:35:34;101080.47;;;-2.18;65.26
76448;BME280;65284;51.040;13.722;2024-01-11T12:38:04;101078.63;;;-2.14;65.59
76448;BME280;65284;51.040;13.722;2024-01-11T12:40:37;101071.16;;;-2.00;64.27
76448;BME280;65284;51.040;13.722;2024-01-11T12:43:04;101071.38;;;-2.06;62.86
76448;BME280;65284;51.040;13.722;2024-01-11T12:45:31;101072.28;;;-2.07;63.19